Terminal Aerodrome Forecast
Issued by NWS Shreveport, LA

Home | Current Version | Previous Version | Text Only | Print | Product List | Glossary On
Versions: 1 2 3 4 5 6 7 8 9 10 11 12 13 14 15 16 17 18 19
000
FTUS44 KSHV 270300 AAA
TAFLFK
TAF AMD
KLFK 270314Z 2703/2724 02005KT P6SM SCT030
      TEMPO 2703/2705 BKN025
     FM271600 07010KT P6SM BKN020 OVC070=

USA.gov is the U.S. government's official web portal to all federal, state and local government web resources and services.